createdAt,value
2023-01-09T00:04:58.555Z,94.72
2023-01-09T00:10:00.187Z,95.03
2023-01-09T00:15:02.151Z,94.96
2023-01-09T00:20:06.719Z,95.29
2023-01-09T00:25:09.465Z,95.71
2023-01-09T00:30:11.624Z,95.64
2023-01-09T00:35:16.912Z,95.89
2023-01-09T00:40:19.145Z,96.23
2023-01-09T00:45:29.013Z,96.34
2023-01-09T00:50:33.489Z,97.00
2023-01-09T00:55:38.111Z,96.58
2023-01-09T01:00:39.788Z,96.99
2023-01-09T01:05:59.887Z,97.05
2023-01-09T01:11:12.541Z,97.17
2023-01-09T01:16:14.339Z,96.87
2023-01-09T01:21:16.533Z,97.28
2023-01-09T01:26:18.267Z,97.29
2023-01-09T01:31:19.934Z,98.00
2023-01-09T01:36:21.559Z,98.02
2023-01-09T01:41:32.286Z,98.37
2023-01-09T01:46:34.772Z,98.47
2023-01-09T01:51:51.410Z,98.72
2023-01-09T01:56:59.779Z,98.93
2023-01-09T02:02:02.886Z,99.07
2023-01-09T02:07:08.682Z,98.93
2023-01-09T02:12:18.800Z,99.08
2023-01-09T02:17:57.987Z,98.69
2023-01-09T02:23:17.986Z,98.91
2023-01-09T02:28:40.913Z,98.98
2023-01-09T02:33:54.061Z,99.99
2023-01-09T02:39:10.191Z,100.00
2023-01-09T02:44:23.710Z,100.00
2023-01-09T02:49:25.660Z,100.00
2023-01-09T02:54:48.950Z,100.00
2023-01-09T03:00:09.880Z,100.00
2023-01-09T03:05:17.707Z,100.00
2023-01-09T03:10:26.754Z,100.00
2023-01-09T03:15:34.015Z,100.00
2023-01-09T03:20:37.045Z,100.00
2023-01-09T03:25:38.830Z,100.00
2023-01-09T03:30:40.505Z,100.00
2023-01-09T03:35:42.166Z,100.00
2023-01-09T03:40:43.940Z,100.00
2023-01-09T03:45:45.658Z,100.00
2023-01-09T03:50:54.847Z,100.00
2023-01-09T03:55:58.093Z,100.00
2023-01-09T04:01:05.085Z,100.00
2023-01-09T04:06:07.897Z,100.00
2023-01-09T04:11:09.832Z,100.00
2023-01-09T04:16:11.476Z,100.00
2023-01-09T04:21:13.239Z,100.00
2023-01-09T04:26:14.884Z,100.00
2023-01-09T04:31:16.561Z,100.00
2023-01-09T04:36:18.331Z,100.00
2023-01-09T04:41:39.044Z,100.00
2023-01-09T04:46:40.694Z,100.00
2023-01-09T04:51:42.405Z,100.00
2023-01-09T04:56:44.034Z,100.00
2023-01-09T05:01:45.752Z,100.00
2023-01-09T05:06:47.465Z,100.00
2023-01-09T05:11:50.290Z,100.00
2023-01-09T05:16:52.009Z,100.00
2023-01-09T05:21:53.673Z,100.00
2023-01-09T05:26:55.745Z,100.00
2023-01-09T05:31:57.448Z,100.00
2023-01-09T05:36:59.207Z,100.00
2023-01-09T05:42:00.839Z,100.00
2023-01-09T05:47:02.997Z,100.00
2023-01-09T05:52:12.242Z,100.00
2023-01-09T05:57:14.258Z,100.00
2023-01-09T06:02:15.944Z,100.00
2023-01-09T06:07:20.902Z,100.00
2023-01-09T06:12:23.227Z,100.00
2023-01-09T06:17:24.914Z,100.00
2023-01-09T06:22:29.357Z,100.00
2023-01-09T06:27:31.119Z,100.00
2023-01-09T06:32:32.741Z,100.00
2023-01-09T06:37:34.427Z,100.00
2023-01-09T06:42:36.019Z,100.00
2023-01-09T06:47:37.783Z,100.00
2023-01-09T06:52:40.017Z,100.00
2023-01-09T06:57:41.788Z,100.00
2023-01-09T07:02:43.561Z,100.00
2023-01-09T07:07:45.229Z,100.00
2023-01-09T07:12:46.991Z,100.00
2023-01-09T07:17:53.173Z,100.00
2023-01-09T07:22:54.916Z,100.00
2023-01-09T07:27:56.537Z,100.00
2023-01-09T07:32:58.203Z,100.00
2023-01-09T07:37:59.868Z,100.00
2023-01-09T07:43:01.673Z,100.00
2023-01-09T07:48:03.724Z,100.00
2023-01-09T07:53:05.386Z,100.00
2023-01-09T07:58:06.980Z,100.00
2023-01-09T08:03:10.717Z,100.00
2023-01-09T08:08:14.375Z,100.00
2023-01-09T08:13:16.167Z,100.00
2023-01-09T08:18:17.823Z,100.00
2023-01-09T08:23:19.585Z,100.00
2023-01-09T08:28:21.374Z,100.00
2023-01-09T08:33:23.098Z,100.00
2023-01-09T08:38:24.799Z,100.00
2023-01-09T08:43:45.044Z,100.00
2023-01-09T08:48:48.349Z,100.00
2023-01-09T08:53:50.011Z,100.00
2023-01-09T08:58:51.669Z,100.00
2023-01-09T09:03:53.667Z,100.00
2023-01-09T09:08:55.650Z,100.00
2023-01-09T09:13:57.849Z,100.00
2023-01-09T09:18:59.478Z,100.00
2023-01-09T09:24:01.162Z,100.00
2023-01-09T09:29:03.036Z,100.00
2023-01-09T09:34:07.373Z,100.00
2023-01-09T09:39:09.322Z,100.00
2023-01-09T09:44:35.486Z,100.00
2023-01-09T09:50:02.073Z,100.00
2023-01-09T09:55:15.749Z,100.00
2023-01-09T10:00:22.203Z,100.00
2023-01-09T10:05:33.226Z,100.00
2023-01-09T10:10:53.507Z,100.00
2023-01-09T10:16:02.056Z,100.00
2023-01-09T10:21:13.767Z,100.00
2023-01-09T10:26:43.480Z,100.00
2023-01-09T10:31:53.885Z,100.00
2023-01-09T10:37:13.084Z,100.00
2023-01-09T10:42:14.719Z,100.00
2023-01-09T10:47:22.344Z,99.69
2023-01-09T10:52:36.171Z,99.51
2023-01-09T10:57:44.559Z,99.55
2023-01-09T11:02:47.172Z,99.48
2023-01-09T11:08:14.411Z,99.32
2023-01-09T11:13:20.855Z,98.91
2023-01-09T11:18:24.769Z,98.30
2023-01-09T11:23:35.354Z,98.75
2023-01-09T11:28:37.041Z,97.87
2023-01-09T11:33:47.744Z,98.47
2023-01-09T11:38:53.392Z,98.65
2023-01-09T11:44:00.244Z,98.38
2023-01-09T11:49:22.824Z,100.00
2023-01-09T11:54:37.963Z,100.00
2023-01-09T11:59:39.702Z,100.00
2023-01-09T12:04:54.439Z,100.00
2023-01-09T12:10:01.156Z,100.00
2023-01-09T12:15:02.875Z,100.00
2023-01-09T12:20:22.977Z,100.00
2023-01-09T12:25:50.389Z,99.88
2023-01-09T12:31:07.429Z,99.54
2023-01-09T12:36:30.240Z,98.33
2023-01-09T12:41:49.833Z,99.62
2023-01-09T12:47:03.369Z,99.35
2023-01-09T12:52:14.931Z,98.31
2023-01-09T12:57:26.583Z,97.70
2023-01-09T13:02:38.989Z,97.00
2023-01-09T13:07:54.875Z,96.04
2023-01-09T13:12:59.163Z,95.26
2023-01-09T13:18:13.069Z,94.91
2023-01-09T13:23:41.414Z,94.72
2023-01-09T13:28:49.062Z,93.89
2023-01-09T13:33:57.515Z,93.40
2023-01-09T13:39:00.761Z,92.68
2023-01-09T13:44:06.159Z,93.26
2023-01-09T13:49:33.508Z,93.00
2023-01-09T13:54:47.185Z,93.01
2023-01-09T13:59:49.773Z,93.00
2023-01-09T14:04:51.613Z,92.89
2023-01-09T14:09:59.646Z,92.39
2023-01-09T14:15:04.441Z,92.61
2023-01-09T14:20:23.469Z,92.81
2023-01-09T14:25:29.712Z,93.15
2023-01-09T14:30:50.053Z,93.68
2023-01-09T14:35:59.684Z,93.38
2023-01-09T14:41:09.582Z,93.45
2023-01-09T14:46:12.936Z,94.26
2023-01-09T14:51:16.974Z,93.92
2023-01-09T14:56:28.737Z,94.10
2023-01-09T15:01:32.674Z,93.53
2023-01-09T15:06:43.451Z,93.22
2023-01-09T15:11:45.425Z,92.90
2023-01-09T15:16:47.150Z,91.81
2023-01-09T15:22:06.544Z,91.66
2023-01-09T15:27:15.621Z,91.89
2023-01-09T15:32:23.912Z,92.63
2023-01-09T15:37:28.204Z,94.16
2023-01-09T15:42:51.909Z,95.60
2023-01-09T15:47:53.852Z,97.04
2023-01-09T15:52:56.911Z,97.43
2023-01-09T15:57:58.793Z,98.40
2023-01-09T16:03:10.916Z,99.03
2023-01-09T16:08:31.779Z,95.87
2023-01-09T16:13:45.156Z,93.25
2023-01-09T16:18:52.018Z,90.78
2023-01-09T16:24:03.723Z,89.41
2023-01-09T16:29:35.640Z,89.15
2023-01-09T16:34:42.437Z,89.69
2023-01-09T16:40:17.365Z,90.59
2023-01-09T16:45:19.782Z,92.19
2023-01-09T16:50:21.694Z,93.39
2023-01-09T16:55:31.569Z,94.60
2023-01-09T17:00:33.260Z,95.51
2023-01-09T17:05:34.916Z,95.53
2023-01-09T17:10:36.550Z,94.01
2023-01-09T17:15:38.313Z,93.59
2023-01-09T17:20:42.027Z,93.43
2023-01-09T17:26:02.806Z,92.88
2023-01-09T17:31:09.154Z,92.68
2023-01-09T17:36:21.832Z,94.02
2023-01-09T17:41:25.771Z,96.33
2023-01-09T17:46:30.877Z,95.55
2023-01-09T17:51:32.643Z,95.87
2023-01-09T17:56:37.413Z,95.73
2023-01-09T18:01:39.825Z,95.75
2023-01-09T18:06:41.742Z,95.73
2023-01-09T18:11:44.814Z,95.68
2023-01-09T18:16:46.555Z,96.35
2023-01-09T18:21:48.477Z,94.68
2023-01-09T18:26:50.132Z,93.74
2023-01-09T18:31:51.973Z,93.12
2023-01-09T18:36:53.807Z,91.49
2023-01-09T18:41:55.625Z,91.09
2023-01-09T18:46:57.253Z,90.33
2023-01-09T18:51:59.899Z,90.28
2023-01-09T18:57:01.645Z,89.37
2023-01-09T19:02:03.414Z,88.53
2023-01-09T19:07:05.087Z,87.53
2023-01-09T19:12:07.019Z,87.97
2023-01-09T19:17:10.870Z,88.13
2023-01-09T19:22:15.118Z,87.65
2023-01-09T19:27:17.720Z,86.32
2023-01-09T19:32:19.453Z,85.50
2023-01-09T19:37:21.260Z,84.80
2023-01-09T19:42:23.073Z,86.39
2023-01-09T19:47:25.045Z,87.32
2023-01-09T19:52:28.110Z,86.82
2023-01-09T19:57:30.610Z,85.90
2023-01-09T20:02:32.876Z,84.90
2023-01-09T20:07:34.937Z,85.24
2023-01-09T20:12:36.697Z,85.00
2023-01-09T20:17:38.418Z,83.84
2023-01-09T20:22:40.120Z,82.98
2023-01-09T20:27:41.913Z,82.81
2023-01-09T20:32:44.711Z,82.41
2023-01-09T20:37:46.342Z,81.69
2023-01-09T20:42:50.867Z,80.63
2023-01-09T20:47:53.027Z,80.25
2023-01-09T20:52:54.617Z,81.28
2023-01-09T20:57:56.303Z,80.88
2023-01-09T21:02:59.462Z,79.96
2023-01-09T21:08:01.084Z,80.48
2023-01-09T21:13:02.740Z,80.55
2023-01-09T21:18:04.436Z,80.23
2023-01-09T21:23:08.407Z,79.84
2023-01-09T21:28:25.725Z,79.21
2023-01-09T21:33:27.514Z,79.82
2023-01-09T21:38:29.239Z,79.40
2023-01-09T21:43:49.719Z,79.09
2023-01-09T21:48:51.416Z,78.81
2023-01-09T21:53:53.044Z,79.48
2023-01-09T21:58:54.681Z,79.76
2023-01-09T22:03:57.026Z,79.53
2023-01-09T22:08:58.772Z,78.76
2023-01-09T22:14:00.452Z,77.80
2023-01-09T22:19:02.210Z,77.10
2023-01-09T22:24:05.182Z,77.73
2023-01-09T22:29:06.803Z,78.92
2023-01-09T22:34:18.416Z,79.47
2023-01-09T22:39:20.226Z,79.54
2023-01-09T22:44:22.191Z,79.41
2023-01-09T22:49:25.077Z,80.30
2023-01-09T22:54:28.039Z,80.76
2023-01-09T22:59:32.127Z,80.95
2023-01-09T23:04:34.039Z,81.32
2023-01-09T23:09:35.799Z,82.52
2023-01-09T23:14:39.111Z,83.37
2023-01-09T23:19:40.878Z,83.54
2023-01-09T23:24:42.553Z,84.17
2023-01-09T23:29:44.228Z,84.26
2023-01-09T23:34:47.391Z,84.45
2023-01-09T23:39:49.103Z,84.92
2023-01-09T23:44:50.876Z,85.17
2023-01-09T23:49:52.809Z,85.73
2023-01-09T23:54:54.520Z,86.23
2023-01-09T23:59:56.167Z,86.23
